Terminal Aerodrome Forecast
Issued by NWS Northern Indiana

Home | Current Version | Previous Version | Graphics & Text | Print | Product List | Glossary On
Versions: 1 2 3 4 5 6 7 8 9 10 11 12 13 14 15
167
FTUS43 KIWX 292327
TAFFWA
TAF
KFWA 292327Z 3000/3024 07016KT P6SM BKN120 OVC200
     FM301000 09013KT P6SM -SHRA OVC050
     FM301200 09014KT 6SM -SHRA OVC025
     FM301500 10014KT 4SM SHRA VCTS OVC015CB
     FM302200 16012KT P6SM -SHRA VCTS OVC035CB=

USA.gov is the U.S. government's official web portal to all federal, state and local government web resources and services.